sensor_id;sensor_type;location;lat;lon;timestamp;pressure;altitude;pressure_sealevel;temperature;humidity
42335;BME280;27986;42.700;24.178;2023-02-16T00:01:52;95049.91;;;1.62;69.01
42335;BME280;27986;42.700;24.178;2023-02-16T00:04:20;95040.28;;;1.50;69.84
42335;BME280;27986;42.700;24.178;2023-02-16T00:06:47;95038.56;;;1.27;70.71
42335;BME280;27986;42.700;24.178;2023-02-16T00:09:13;95049.91;;;1.33;71.60
42335;BME280;27986;42.700;24.178;2023-02-16T00:11:38;95045.38;;;1.39;71.57
42335;BME280;27986;42.700;24.178;2023-02-16T00:14:23;95047.25;;;1.42;71.15
42335;BME280;27986;42.700;24.178;2023-02-16T00:16:54;95038.06;;;1.00;71.92
42335;BME280;27986;42.700;24.178;2023-02-16T00:19:42;95047.13;;;0.88;73.98
42335;BME280;27986;42.700;24.178;2023-02-16T00:22:08;95027.28;;;0.73;75.58
42335;BME280;27986;42.700;24.178;2023-02-16T00:24:35;95034.03;;;0.72;76.27
42335;BME280;27986;42.700;24.178;2023-02-16T00:27:02;95032.81;;;0.89;74.76
42335;BME280;27986;42.700;24.178;2023-02-16T00:29:30;95035.69;;;0.86;74.19
42335;BME280;27986;42.700;24.178;2023-02-16T00:31:57;95040.06;;;0.99;73.89
42335;BME280;27986;42.700;24.178;2023-02-16T00:34:36;95045.00;;;1.08;72.91
42335;BME280;27986;42.700;24.178;2023-02-16T00:37:04;95044.22;;;1.07;72.59
42335;BME280;27986;42.700;24.178;2023-02-16T00:39:30;95043.88;;;1.05;72.88
42335;BME280;27986;42.700;24.178;2023-02-16T00:42:05;95032.28;;;0.94;72.90
42335;BME280;27986;42.700;24.178;2023-02-16T00:44:40;95041.63;;;1.00;71.84
42335;BME280;27986;42.700;24.178;2023-02-16T00:49:57;95031.53;;;0.77;71.81
42335;BME280;27986;42.700;24.178;2023-02-16T00:52:30;95041.44;;;0.62;72.08
42335;BME280;27986;42.700;24.178;2023-02-16T00:54:57;95021.72;;;0.56;73.05
42335;BME280;27986;42.700;24.178;2023-02-16T00:57:24;95023.84;;;0.98;71.93
42335;BME280;27986;42.700;24.178;2023-02-16T00:59:57;95015.81;;;0.87;70.34
42335;BME280;27986;42.700;24.178;2023-02-16T01:02:25;95032.03;;;0.40;72.73
42335;BME280;27986;42.700;24.178;2023-02-16T01:04:50;95019.63;;;0.12;76.40
42335;BME280;27986;42.700;24.178;2023-02-16T01:07:17;95000.31;;;-0.08;77.43
42335;BME280;27986;42.700;24.178;2023-02-16T01:10:03;95009.31;;;0.12;78.09
42335;BME280;27986;42.700;24.178;2023-02-16T01:12:47;95007.00;;;0.11;76.24
42335;BME280;27986;42.700;24.178;2023-02-16T01:15:15;95002.81;;;0.03;77.61
42335;BME280;27986;42.700;24.178;2023-02-16T01:17:43;95004.91;;;0.31;76.22
42335;BME280;27986;42.700;24.178;2023-02-16T01:20:17;95005.84;;;0.24;76.38
42335;BME280;27986;42.700;24.178;2023-02-16T01:22:43;95000.13;;;0.15;77.02
42335;BME280;27986;42.700;24.178;2023-02-16T01:25:09;95015.50;;;0.36;76.92
42335;BME280;27986;42.700;24.178;2023-02-16T01:27:38;95009.06;;;0.39;75.95
42335;BME280;27986;42.700;24.178;2023-02-16T01:30:05;94993.00;;;-0.02;75.51
42335;BME280;27986;42.700;24.178;2023-02-16T01:32:31;95007.94;;;0.20;75.84
42335;BME280;27986;42.700;24.178;2023-02-16T01:34:57;95014.22;;;-0.12;76.56
42335;BME280;27986;42.700;24.178;2023-02-16T01:37:23;95007.25;;;0.16;75.85
42335;BME280;27986;42.700;24.178;2023-02-16T01:39:49;95010.72;;;0.37;75.69
42335;BME280;27986;42.700;24.178;2023-02-16T01:44:58;95011.16;;;0.35;74.58
42335;BME280;27986;42.700;24.178;2023-02-16T01:47:41;95017.50;;;0.52;73.44
42335;BME280;27986;42.700;24.178;2023-02-16T01:52:47;95012.97;;;0.58;73.45
42335;BME280;27986;42.700;24.178;2023-02-16T01:55:24;95011.78;;;0.26;75.01
42335;BME280;27986;42.700;24.178;2023-02-16T02:03:21;95005.53;;;-0.30;76.59
42335;BME280;27986;42.700;24.178;2023-02-16T02:06:09;95011.59;;;-0.19;76.86
42335;BME280;27986;42.700;24.178;2023-02-16T02:08:50;95003.63;;;-0.33;77.06
42335;BME280;27986;42.700;24.178;2023-02-16T02:11:26;94997.66;;;-0.32;77.34
42335;BME280;27986;42.700;24.178;2023-02-16T02:14:08;95008.88;;;-0.39;77.15
42335;BME280;27986;42.700;24.178;2023-02-16T02:16:35;94992.84;;;-0.47;77.80
42335;BME280;27986;42.700;24.178;2023-02-16T02:19:01;94984.28;;;-0.37;77.86
42335;BME280;27986;42.700;24.178;2023-02-16T02:27:29;94985.03;;;-0.52;77.99
42335;BME280;27986;42.700;24.178;2023-02-16T02:37:57;94997.78;;;-0.03;73.61
42335;BME280;27986;42.700;24.178;2023-02-16T02:43:43;94993.91;;;-0.61;76.85
42335;BME280;27986;42.700;24.178;2023-02-16T02:46:16;94982.47;;;-0.63;79.00
42335;BME280;27986;42.700;24.178;2023-02-16T02:48:44;94996.97;;;-0.19;77.67
42335;BME280;27986;42.700;24.178;2023-02-16T02:51:13;94983.38;;;-0.14;75.53
42335;BME280;27986;42.700;24.178;2023-02-16T03:02:53;94989.53;;;-0.22;75.01
42335;BME280;27986;42.700;24.178;2023-02-16T03:05:21;94994.59;;;0.15;73.47
42335;BME280;27986;42.700;24.178;2023-02-16T03:07:48;94986.09;;;0.22;72.08
42335;BME280;27986;42.700;24.178;2023-02-16T03:10:23;94995.31;;;0.52;70.99
42335;BME280;27986;42.700;24.178;2023-02-16T03:13:15;94970.75;;;0.50;69.10
42335;BME280;27986;42.700;24.178;2023-02-16T03:15:44;94988.72;;;0.30;70.53
42335;BME280;27986;42.700;24.178;2023-02-16T03:18:12;94986.88;;;0.23;72.49
42335;BME280;27986;42.700;24.178;2023-02-16T03:20:57;94971.53;;;0.02;72.75
42335;BME280;27986;42.700;24.178;2023-02-16T03:23:44;94974.50;;;0.11;72.36
42335;BME280;27986;42.700;24.178;2023-02-16T03:26:30;94970.06;;;-0.03;72.48
42335;BME280;27986;42.700;24.178;2023-02-16T03:29:15;94966.22;;;-0.09;73.56
42335;BME280;27986;42.700;24.178;2023-02-16T03:31:50;94974.81;;;-0.03;74.69
42335;BME280;27986;42.700;24.178;2023-02-16T03:34:19;94964.63;;;0.10;74.50
42335;BME280;27986;42.700;24.178;2023-02-16T03:36:49;94965.63;;;0.16;73.79
42335;BME280;27986;42.700;24.178;2023-02-16T03:39:17;94956.81;;;0.21;73.04
42335;BME280;27986;42.700;24.178;2023-02-16T03:41:49;94962.53;;;0.31;72.11
42335;BME280;27986;42.700;24.178;2023-02-16T03:44:15;94948.22;;;0.32;71.17
42335;BME280;27986;42.700;24.178;2023-02-16T03:46:41;94957.16;;;0.40;70.65
42335;BME280;27986;42.700;24.178;2023-02-16T03:49:06;94951.59;;;0.40;70.06
42335;BME280;27986;42.700;24.178;2023-02-16T03:51:32;94940.59;;;0.52;69.48
42335;BME280;27986;42.700;24.178;2023-02-16T03:53:57;94956.50;;;0.65;68.29
42335;BME280;27986;42.700;24.178;2023-02-16T03:56:23;94963.69;;;0.78;67.36
42335;BME280;27986;42.700;24.178;2023-02-16T03:58:48;94960.25;;;0.42;67.23
42335;BME280;27986;42.700;24.178;2023-02-16T04:01:14;94960.69;;;0.08;68.33
42335;BME280;27986;42.700;24.178;2023-02-16T04:03:39;94950.50;;;0.21;68.44
42335;BME280;27986;42.700;24.178;2023-02-16T04:06:05;94963.22;;;0.18;68.26
42335;BME280;27986;42.700;24.178;2023-02-16T04:08:30;94955.13;;;-0.41;70.27
42335;BME280;27986;42.700;24.178;2023-02-16T04:10:56;94961.09;;;-0.63;73.15
42335;BME280;27986;42.700;24.178;2023-02-16T04:13:22;94959.28;;;-0.89;74.29
42335;BME280;27986;42.700;24.178;2023-02-16T04:15:48;94959.78;;;-1.14;75.19
42335;BME280;27986;42.700;24.178;2023-02-16T04:18:14;94944.50;;;-1.42;77.91
42335;BME280;27986;42.700;24.178;2023-02-16T04:20:39;94964.94;;;-0.76;76.98
42335;BME280;27986;42.700;24.178;2023-02-16T04:23:05;94960.66;;;-0.41;74.74
42335;BME280;27986;42.700;24.178;2023-02-16T04:25:31;94954.00;;;-0.28;74.32
42335;BME280;27986;42.700;24.178;2023-02-16T04:27:57;94954.81;;;0.06;71.96
42335;BME280;27986;42.700;24.178;2023-02-16T04:30:25;94951.91;;;-0.40;71.77
42335;BME280;27986;42.700;24.178;2023-02-16T04:32:51;94955.31;;;-0.52;72.62
42335;BME280;27986;42.700;24.178;2023-02-16T04:35:18;94951.66;;;-0.65;72.08
42335;BME280;27986;42.700;24.178;2023-02-16T04:37:43;94935.97;;;-0.72;72.42
42335;BME280;27986;42.700;24.178;2023-02-16T04:40:10;94942.25;;;-0.51;72.64
42335;BME280;27986;42.700;24.178;2023-02-16T04:42:39;94944.66;;;-0.34;71.90
42335;BME280;27986;42.700;24.178;2023-02-16T04:45:05;94942.34;;;-0.03;70.02
42335;BME280;27986;42.700;24.178;2023-02-16T04:47:31;94955.13;;;-0.09;69.60
42335;BME280;27986;42.700;24.178;2023-02-16T04:49:57;94953.16;;;0.08;69.08
42335;BME280;27986;42.700;24.178;2023-02-16T04:52:22;94957.94;;;0.08;68.25
42335;BME280;27986;42.700;24.178;2023-02-16T04:54:47;94954.44;;;-0.65;69.68
42335;BME280;27986;42.700;24.178;2023-02-16T04:57:14;94951.78;;;-1.08;72.49
42335;BME280;27986;42.700;24.178;2023-02-16T04:59:40;94961.25;;;-1.09;74.02
42335;BME280;27986;42.700;24.178;2023-02-16T05:02:05;94973.19;;;-1.13;74.19
42335;BME280;27986;42.700;24.178;2023-02-16T05:04:31;94973.25;;;-0.76;72.52
42335;BME280;27986;42.700;24.178;2023-02-16T05:06:57;94967.44;;;-1.02;73.09
42335;BME280;27986;42.700;24.178;2023-02-16T05:09:22;94976.78;;;-0.56;72.22
42335;BME280;27986;42.700;24.178;2023-02-16T05:11:47;94970.38;;;-0.33;71.68
42335;BME280;27986;42.700;24.178;2023-02-16T05:14:33;94984.81;;;-0.25;70.58
42335;BME280;27986;42.700;24.178;2023-02-16T05:17:13;94985.34;;;-0.31;70.34
42335;BME280;27986;42.700;24.178;2023-02-16T05:19:39;94981.38;;;-0.30;69.55
42335;BME280;27986;42.700;24.178;2023-02-16T05:22:06;94977.50;;;-0.52;70.44
42335;BME280;27986;42.700;24.178;2023-02-16T05:24:31;94996.94;;;-0.36;70.23
42335;BME280;27986;42.700;24.178;2023-02-16T05:26:59;94983.09;;;-0.19;69.17
42335;BME280;27986;42.700;24.178;2023-02-16T05:29:24;94988.50;;;-0.12;68.02
42335;BME280;27986;42.700;24.178;2023-02-16T05:31:49;94996.78;;;-0.29;68.82
42335;BME280;27986;42.700;24.178;2023-02-16T05:34:15;94985.53;;;-0.21;68.75
42335;BME280;27986;42.700;24.178;2023-02-16T05:36:40;94999.72;;;0.01;67.72
42335;BME280;27986;42.700;24.178;2023-02-16T05:39:06;95001.88;;;0.09;66.32
42335;BME280;27986;42.700;24.178;2023-02-16T05:41:31;95002.69;;;-0.10;66.70
42335;BME280;27986;42.700;24.178;2023-02-16T05:43:59;95003.09;;;-0.28;68.83
42335;BME280;27986;42.700;24.178;2023-02-16T05:46:26;95012.31;;;-0.91;71.00
42335;BME280;27986;42.700;24.178;2023-02-16T05:48:52;95002.16;;;-0.97;72.55
42335;BME280;27986;42.700;24.178;2023-02-16T05:51:18;95007.28;;;-1.19;73.97
42335;BME280;27986;42.700;24.178;2023-02-16T05:53:45;95001.19;;;-1.30;75.57
42335;BME280;27986;42.700;24.178;2023-02-16T05:56:11;95004.56;;;-0.99;75.82
42335;BME280;27986;42.700;24.178;2023-02-16T05:58:36;95019.06;;;-0.72;74.78
42335;BME280;27986;42.700;24.178;2023-02-16T06:01:02;95014.00;;;-0.37;73.16
42335;BME280;27986;42.700;24.178;2023-02-16T06:03:28;95019.28;;;-0.07;70.88
42335;BME280;27986;42.700;24.178;2023-02-16T06:05:55;95021.66;;;0.27;69.40
42335;BME280;27986;42.700;24.178;2023-02-16T06:08:21;95016.97;;;0.41;68.50
42335;BME280;27986;42.700;24.178;2023-02-16T06:10:51;95017.66;;;0.28;69.13
42335;BME280;27986;42.700;24.178;2023-02-16T06:13:16;95023.06;;;0.52;68.43
42335;BME280;27986;42.700;24.178;2023-02-16T06:15:42;95015.66;;;0.78;67.38
42335;BME280;27986;42.700;24.178;2023-02-16T06:18:08;95014.84;;;0.94;67.04
42335;BME280;27986;42.700;24.178;2023-02-16T06:20:36;95010.88;;;0.78;68.01
42335;BME280;27986;42.700;24.178;2023-02-16T06:23:02;95012.66;;;1.01;66.72
42335;BME280;27986;42.700;24.178;2023-02-16T06:25:27;95016.00;;;1.09;65.36
42335;BME280;27986;42.700;24.178;2023-02-16T06:27:53;95011.69;;;1.08;66.30
42335;BME280;27986;42.700;24.178;2023-02-16T06:30:21;95000.72;;;1.17;65.59
42335;BME280;27986;42.700;24.178;2023-02-16T06:32:47;95010.44;;;1.09;66.28
42335;BME280;27986;42.700;24.178;2023-02-16T06:35:12;95015.06;;;1.45;66.09
42335;BME280;27986;42.700;24.178;2023-02-16T06:37:38;94999.53;;;1.18;66.62
42335;BME280;27986;42.700;24.178;2023-02-16T06:40:04;95005.06;;;1.18;68.27
42335;BME280;27986;42.700;24.178;2023-02-16T06:42:29;95007.25;;;1.39;71.32
42335;BME280;27986;42.700;24.178;2023-02-16T06:44:55;95011.94;;;2.61;75.72
42335;BME280;27986;42.700;24.178;2023-02-16T06:47:20;95005.94;;;3.31;66.01
42335;BME280;27986;42.700;24.178;2023-02-16T06:49:45;95014.81;;;3.61;59.86
42335;BME280;27986;42.700;24.178;2023-02-16T06:52:11;95016.97;;;3.79;58.01
42335;BME280;27986;42.700;24.178;2023-02-16T06:54:36;95019.00;;;3.22;58.36
42335;BME280;27986;42.700;24.178;2023-02-16T06:57:02;95015.53;;;3.30;59.07
42335;BME280;27986;42.700;24.178;2023-02-16T06:59:27;95018.38;;;2.58;60.17
42335;BME280;27986;42.700;24.178;2023-02-16T07:01:53;95026.63;;;2.10;62.42
42335;BME280;27986;42.700;24.178;2023-02-16T07:04:18;95029.63;;;2.03;64.90
42335;BME280;27986;42.700;24.178;2023-02-16T07:06:43;95018.19;;;2.99;70.64
42335;BME280;27986;42.700;24.178;2023-02-16T07:09:09;95023.84;;;4.18;66.58
42335;BME280;27986;42.700;24.178;2023-02-16T07:11:34;95020.13;;;4.52;62.05
42335;BME280;27986;42.700;24.178;2023-02-16T07:14:00;95013.13;;;4.47;64.55
42335;BME280;27986;42.700;24.178;2023-02-16T07:16:25;95020.53;;;4.82;61.45
42335;BME280;27986;42.700;24.178;2023-02-16T07:18:51;95030.88;;;5.21;61.66
42335;BME280;27986;42.700;24.178;2023-02-16T07:21:16;95032.38;;;5.04;54.74
42335;BME280;27986;42.700;24.178;2023-02-16T07:23:41;95017.41;;;4.30;60.49
42335;BME280;27986;42.700;24.178;2023-02-16T07:26:07;95033.69;;;4.32;58.26
42335;BME280;27986;42.700;24.178;2023-02-16T07:28:33;95037.63;;;2.52;64.48
42335;BME280;27986;42.700;24.178;2023-02-16T07:31:05;95039.28;;;1.98;68.46
42335;BME280;27986;42.700;24.178;2023-02-16T07:33:30;95042.28;;;1.91;69.74
42335;BME280;27986;42.700;24.178;2023-02-16T07:35:56;95036.34;;;1.64;71.21
42335;BME280;27986;42.700;24.178;2023-02-16T07:38:21;95031.72;;;1.86;70.87
42335;BME280;27986;42.700;24.178;2023-02-16T07:40:47;95034.09;;;2.13;70.46
42335;BME280;27986;42.700;24.178;2023-02-16T07:43:12;95029.28;;;1.88;72.42
42335;BME280;27986;42.700;24.178;2023-02-16T07:45:38;95031.09;;;1.66;73.21
42335;BME280;27986;42.700;24.178;2023-02-16T07:48:03;95023.72;;;1.18;75.73
42335;BME280;27986;42.700;24.178;2023-02-16T07:50:29;95041.91;;;1.64;76.41
42335;BME280;27986;42.700;24.178;2023-02-16T07:52:54;95038.50;;;1.85;74.97
42335;BME280;27986;42.700;24.178;2023-02-16T07:55:20;95031.72;;;1.99;74.05
42335;BME280;27986;42.700;24.178;2023-02-16T07:57:45;95027.50;;;1.94;74.44
42335;BME280;27986;42.700;24.178;2023-02-16T08:00:14;95032.19;;;1.97;73.94
42335;BME280;27986;42.700;24.178;2023-02-16T08:02:39;95029.50;;;1.94;75.26
42335;BME280;27986;42.700;24.178;2023-02-16T08:05:06;95013.84;;;2.38;72.17
42335;BME280;27986;42.700;24.178;2023-02-16T08:07:31;95024.19;;;2.38;70.58
42335;BME280;27986;42.700;24.178;2023-02-16T08:09:57;95019.97;;;2.93;69.12
42335;BME280;27986;42.700;24.178;2023-02-16T08:12:23;95022.88;;;3.37;67.04
42335;BME280;27986;42.700;24.178;2023-02-16T08:14:49;95023.31;;;3.57;65.71
42335;BME280;27986;42.700;24.178;2023-02-16T08:17:14;95030.41;;;4.02;63.98
42335;BME280;27986;42.700;24.178;2023-02-16T08:19:40;95032.63;;;4.07;63.89
42335;BME280;27986;42.700;24.178;2023-02-16T08:22:06;95028.06;;;4.22;62.81
42335;BME280;27986;42.700;24.178;2023-02-16T08:24:32;95030.91;;;4.72;60.45
42335;BME280;27986;42.700;24.178;2023-02-16T08:26:58;95035.03;;;5.07;59.82
42335;BME280;27986;42.700;24.178;2023-02-16T08:29:24;95026.66;;;5.17;58.17
42335;BME280;27986;42.700;24.178;2023-02-16T08:31:51;95025.28;;;5.40;58.34
42335;BME280;27986;42.700;24.178;2023-02-16T08:34:18;95019.06;;;5.26;58.54
42335;BME280;27986;42.700;24.178;2023-02-16T08:36:45;95019.34;;;5.37;58.48
42335;BME280;27986;42.700;24.178;2023-02-16T08:39:13;95028.22;;;5.54;58.24
42335;BME280;27986;42.700;24.178;2023-02-16T08:41:40;95023.41;;;5.55;58.28
42335;BME280;27986;42.700;24.178;2023-02-16T08:44:07;95025.91;;;5.80;57.13
42335;BME280;27986;42.700;24.178;2023-02-16T08:46:33;95026.81;;;6.14;56.23
42335;BME280;27986;42.700;24.178;2023-02-16T08:48:59;95023.41;;;6.52;54.71
42335;BME280;27986;42.700;24.178;2023-02-16T08:51:31;95020.16;;;6.44;55.04
42335;BME280;27986;42.700;24.178;2023-02-16T08:53:58;95019.50;;;6.59;54.27
42335;BME280;27986;42.700;24.178;2023-02-16T08:56:24;95013.03;;;6.76;53.74
42335;BME280;27986;42.700;24.178;2023-02-16T08:58:50;95009.97;;;6.98;52.01
42335;BME280;27986;42.700;24.178;2023-02-16T09:01:16;95012.28;;;7.00;52.09
42335;BME280;27986;42.700;24.178;2023-02-16T09:03:43;95017.13;;;7.23;51.61
42335;BME280;27986;42.700;24.178;2023-02-16T09:06:11;94990.19;;;6.69;52.13
42335;BME280;27986;42.700;24.178;2023-02-16T09:08:38;95005.44;;;7.01;52.06
42335;BME280;27986;42.700;24.178;2023-02-16T09:11:06;95009.59;;;7.05;50.97
42335;BME280;27986;42.700;24.178;2023-02-16T09:13:34;95008.97;;;6.44;51.90
42335;BME280;27986;42.700;24.178;2023-02-16T09:16:04;95014.53;;;6.54;52.02
42335;BME280;27986;42.700;24.178;2023-02-16T09:18:30;95009.47;;;6.34;53.09
42335;BME280;27986;42.700;24.178;2023-02-16T09:20:57;95005.75;;;6.70;51.95
42335;BME280;27986;42.700;24.178;2023-02-16T09:23:26;95005.31;;;6.62;51.95
42335;BME280;27986;42.700;24.178;2023-02-16T09:25:52;94984.41;;;6.96;51.38
42335;BME280;27986;42.700;24.178;2023-02-16T09:28:17;94999.41;;;7.17;51.20
42335;BME280;27986;42.700;24.178;2023-02-16T09:30:43;94990.91;;;6.78;52.91
42335;BME280;27986;42.700;24.178;2023-02-16T09:33:08;94979.09;;;6.74;53.54
42335;BME280;27986;42.700;24.178;2023-02-16T09:35:37;94989.78;;;6.85;53.93
42335;BME280;27986;42.700;24.178;2023-02-16T09:38:03;94989.31;;;7.11;52.53
42335;BME280;27986;42.700;24.178;2023-02-16T09:40:29;94985.78;;;7.49;52.11
42335;BME280;27986;42.700;24.178;2023-02-16T09:45:23;94970.75;;;7.90;48.26
42335;BME280;27986;42.700;24.178;2023-02-16T09:47:52;94977.72;;;8.25;48.31
42335;BME280;27986;42.700;24.178;2023-02-16T09:50:23;94972.47;;;8.47;46.93
42335;BME280;27986;42.700;24.178;2023-02-16T09:55:32;94976.16;;;8.53;47.55
42335;BME280;27986;42.700;24.178;2023-02-16T10:00:50;94966.16;;;9.02;46.04
42335;BME280;27986;42.700;24.178;2023-02-16T10:08:58;94946.28;;;8.56;46.13
42335;BME280;27986;42.700;24.178;2023-02-16T10:11:30;94960.88;;;8.25;46.75
42335;BME280;27986;42.700;24.178;2023-02-16T10:14:11;94950.38;;;8.40;46.73
42335;BME280;27986;42.700;24.178;2023-02-16T10:16:45;94949.50;;;8.49;45.84
42335;BME280;27986;42.700;24.178;2023-02-16T10:19:38;94952.47;;;8.74;45.06
42335;BME280;27986;42.700;24.178;2023-02-16T10:22:12;94930.53;;;8.43;45.68
42335;BME280;27986;42.700;24.178;2023-02-16T10:25:12;94923.75;;;8.21;46.27
42335;BME280;27986;42.700;24.178;2023-02-16T10:27:42;94942.84;;;8.02;46.84
42335;BME280;27986;42.700;24.178;2023-02-16T10:30:21;94935.16;;;8.32;46.53
42335;BME280;27986;42.700;24.178;2023-02-16T10:35:52;94933.09;;;8.62;45.31
42335;BME280;27986;42.700;24.178;2023-02-16T10:38:42;94926.81;;;8.52;46.17
42335;BME280;27986;42.700;24.178;2023-02-16T10:43:49;94908.13;;;8.49;45.43
42335;BME280;27986;42.700;24.178;2023-02-16T10:46:22;94911.13;;;8.45;46.06
42335;BME280;27986;42.700;24.178;2023-02-16T10:48:54;94926.44;;;8.59;44.76
42335;BME280;27986;42.700;24.178;2023-02-16T10:51:25;94918.72;;;9.15;43.35
42335;BME280;27986;42.700;24.178;2023-02-16T10:53:58;94921.31;;;9.39;43.26
42335;BME280;27986;42.700;24.178;2023-02-16T10:56:42;94926.22;;;9.65;44.05
42335;BME280;27986;42.700;24.178;2023-02-16T10:59:21;94918.53;;;9.65;43.16
42335;BME280;27986;42.700;24.178;2023-02-16T11:01:48;94920.75;;;9.81;43.28
42335;BME280;27986;42.700;24.178;2023-02-16T11:07:15;94916.28;;;9.95;41.44
42335;BME280;27986;42.700;24.178;2023-02-16T11:09:44;94902.47;;;9.71;41.74
42335;BME280;27986;42.700;24.178;2023-02-16T11:12:39;94909.75;;;9.83;41.18
42335;BME280;27986;42.700;24.178;2023-02-16T11:17:56;94893.06;;;10.06;41.36
42335;BME280;27986;42.700;24.178;2023-02-16T11:23:23;94892.00;;;10.66;39.56
42335;BME280;27986;42.700;24.178;2023-02-16T11:28:44;94889.09;;;11.52;44.24
42335;BME280;27986;42.700;24.178;2023-02-16T11:34:01;94884.22;;;11.52;36.49
42335;BME280;27986;42.700;24.178;2023-02-16T11:36:39;94885.50;;;10.92;37.22
42335;BME280;27986;42.700;24.178;2023-02-16T11:39:23;94856.94;;;10.73;36.89
42335;BME280;27986;42.700;24.178;2023-02-16T11:42:08;94877.72;;;11.30;36.91
42335;BME280;27986;42.700;24.178;2023-02-16T11:44:52;94873.28;;;12.50;38.11
42335;BME280;27986;42.700;24.178;2023-02-16T11:47:23;94867.38;;;12.53;35.54
42335;BME280;27986;42.700;24.178;2023-02-16T11:50:11;94867.63;;;12.10;36.00
42335;BME280;27986;42.700;24.178;2023-02-16T11:52:41;94853.63;;;11.51;36.13
42335;BME280;27986;42.700;24.178;2023-02-16T11:55:19;94858.00;;;11.46;36.85
42335;BME280;27986;42.700;24.178;2023-02-16T11:57:45;94856.56;;;11.90;36.55
42335;BME280;27986;42.700;24.178;2023-02-16T12:00:19;94859.09;;;11.77;36.09
42335;BME280;27986;42.700;24.178;2023-02-16T12:03:18;94845.72;;;11.61;36.69
42335;BME280;27986;42.700;24.178;2023-02-16T12:11:26;94845.25;;;12.35;35.73
42335;BME280;27986;42.700;24.178;2023-02-16T12:16:47;94834.72;;;12.47;37.19
42335;BME280;27986;42.700;24.178;2023-02-16T12:27:40;94819.88;;;13.10;35.68
42335;BME280;27986;42.700;24.178;2023-02-16T12:33:05;94810.19;;;12.83;35.49
42335;BME280;27986;42.700;24.178;2023-02-16T12:38:32;94812.13;;;13.10;35.14
42335;BME280;27986;42.700;24.178;2023-02-16T12:43:50;94797.50;;;13.01;34.87
42335;BME280;27986;42.700;24.178;2023-02-16T12:49:24;94795.56;;;12.73;35.07
42335;BME280;27986;42.700;24.178;2023-02-16T12:54:59;94798.22;;;13.18;34.94
42335;BME280;27986;42.700;24.178;2023-02-16T12:57:30;94792.88;;;13.03;35.37
42335;BME280;27986;42.700;24.178;2023-02-16T13:00:02;94793.50;;;12.74;35.44
42335;BME280;27986;42.700;24.178;2023-02-16T13:02:38;94786.28;;;12.78;34.85
42335;BME280;27986;42.700;24.178;2023-02-16T13:05:13;94792.97;;;12.86;34.63
42335;BME280;27986;42.700;24.178;2023-02-16T13:07:44;94789.31;;;12.86;34.72
42335;BME280;27986;42.700;24.178;2023-02-16T13:10:27;94785.25;;;12.76;34.75
42335;BME280;27986;42.700;24.178;2023-02-16T13:13:00;94790.66;;;13.78;39.78
42335;BME280;27986;42.700;24.178;2023-02-16T13:15:35;94780.72;;;14.26;35.58
42335;BME280;27986;42.700;24.178;2023-02-16T13:20:52;94766.16;;;14.90;34.54
42335;BME280;27986;42.700;24.178;2023-02-16T13:26:34;94769.19;;;15.16;31.58
42335;BME280;27986;42.700;24.178;2023-02-16T13:37:38;94754.78;;;14.17;31.90
42335;BME280;27986;42.700;24.178;2023-02-16T13:39:40;94752.06;;;14.05;31.50
42335;BME280;27986;42.700;24.178;2023-02-16T13:45:14;94747.59;;;13.50;31.74
42335;BME280;27986;42.700;24.178;2023-02-16T13:47:42;94744.63;;;12.79;32.61
42335;BME280;27986;42.700;24.178;2023-02-16T13:50:26;94739.56;;;13.07;32.82
42335;BME280;27986;42.700;24.178;2023-02-16T13:52:56;94745.31;;;13.43;32.53
42335;BME280;27986;42.700;24.178;2023-02-16T13:55:34;94749.41;;;13.83;32.04
42335;BME280;27986;42.700;24.178;2023-02-16T13:58:28;94739.94;;;13.75;31.31
42335;BME280;27986;42.700;24.178;2023-02-16T14:00:56;94726.81;;;13.72;32.75
42335;BME280;27986;42.700;24.178;2023-02-16T14:05:51;94735.13;;;13.17;31.89
42335;BME280;27986;42.700;24.178;2023-02-16T14:08:29;94746.94;;;12.75;31.72
42335;BME280;27986;42.700;24.178;2023-02-16T14:11:02;94744.16;;;12.58;31.80
42335;BME280;27986;42.700;24.178;2023-02-16T14:24:06;94734.72;;;12.38;31.97
42335;BME280;27986;42.700;24.178;2023-02-16T14:29:26;94721.28;;;12.56;32.22
42335;BME280;27986;42.700;24.178;2023-02-16T14:34:35;94723.16;;;12.25;30.09
42335;BME280;27986;42.700;24.178;2023-02-16T14:39:44;94704.50;;;11.94;30.88
42335;BME280;27986;42.700;24.178;2023-02-16T14:42:17;94722.19;;;12.06;29.52
42335;BME280;27986;42.700;24.178;2023-02-16T14:58:12;94722.97;;;11.62;32.95
42335;BME280;27986;42.700;24.178;2023-02-16T15:00:47;94708.06;;;11.67;33.33
42335;BME280;27986;42.700;24.178;2023-02-16T15:03:16;94722.72;;;11.93;33.33
42335;BME280;27986;42.700;24.178;2023-02-16T15:05:47;94706.78;;;11.73;32.99
42335;BME280;27986;42.700;24.178;2023-02-16T15:08:22;94724.25;;;11.72;33.43
42335;BME280;27986;42.700;24.178;2023-02-16T15:10:50;94715.00;;;11.43;33.39
42335;BME280;27986;42.700;24.178;2023-02-16T15:13:27;94709.31;;;11.26;34.26
42335;BME280;27986;42.700;24.178;2023-02-16T15:15:59;94726.56;;;11.45;33.96
42335;BME280;27986;42.700;24.178;2023-02-16T15:18:30;94723.22;;;11.52;34.29
42335;BME280;27986;42.700;24.178;2023-02-16T15:20:57;94726.56;;;11.40;34.47
42335;BME280;27986;42.700;24.178;2023-02-16T15:23:28;94726.81;;;11.47;34.82
42335;BME280;27986;42.700;24.178;2023-02-16T15:28:29;94722.69;;;11.60;35.39
42335;BME280;27986;42.700;24.178;2023-02-16T15:31:04;94724.25;;;11.55;35.34
42335;BME280;27986;42.700;24.178;2023-02-16T15:35:59;94716.75;;;11.07;36.37
42335;BME280;27986;42.700;24.178;2023-02-16T15:38:28;94717.78;;;11.04;36.33
42335;BME280;27986;42.700;24.178;2023-02-16T15:41:04;94726.22;;;10.98;36.08
42335;BME280;27986;42.700;24.178;2023-02-16T15:43:36;94727.97;;;10.79;36.77
42335;BME280;27986;42.700;24.178;2023-02-16T15:46:06;94712.50;;;10.52;37.42
42335;BME280;27986;42.700;24.178;2023-02-16T15:48:38;94731.34;;;10.29;37.59
42335;BME280;27986;42.700;24.178;2023-02-16T15:51:16;94715.56;;;10.06;38.11